Saturday, November 17, 2018, 7:03 AM GMT
Back to Local

CYHU, Saint Hubert Airport

Location: , , Canada Lat: 45.517
Local Time: 7:03 AM GMT ( 7:03 GMT) Lon: -73.417
Time Zone: GMT Elev: 88 ft

Show me the last for .
Show Decoded

2018-11-17 06:19 METAR CYHU 170619Z AUTO 24008KT 9SM -SN BKN014 BKN027 OVC050 M02/M04 A2976 RMK
                 SLP082 =
2018-11-17 06:13 METAR CYHU 170613Z AUTO 24005KT 9SM BKN014 BKN027 OVC050 M02/M04 A2976 RMK
                 SLP082 =
2018-11-17 06:00 METAR CYHU 170600Z AUTO 27009KT 9SM FEW012 BKN029 OVC050 M02/M04 A2976 RMK
                 SLP079 =
2018-11-17 05:40 METAR CYHU 170540Z AUTO 28010KT 9SM FEW012 SCT017 OVC031 M02/M04 A2975 RMK
                 SLP078 =
2018-11-17 05:21 METAR CYHU 170521Z AUTO 25009KT 9SM OVC015 M02/M04 A2975 RMK SLP078 =
2018-11-17 05:00 METAR CYHU 170500Z AUTO 26010KT 9SM -SN OVC014 M02/M04 A2974 RMK SLP075 =
2018-11-17 04:55 METAR CYHU 170455Z AUTO 25008KT 9SM -SN OVC014 M02/M04 A2974 RMK SLP075 =
2018-11-17 04:00 METAR CYHU 170400Z AUTO 00000KT 7SM OVC011 M04/M05 A2973 RMK SLP069 =
2018-11-17 03:54 METAR CYHU 170354Z AUTO 00000KT 7SM OVC013 M04/M04 A2973 RMK SLP069 =
2018-11-17 03:53 METAR CYHU 170353Z AUTO 00000KT 7SM BKN009 OVC013 M04/M04 A2973 RMK SLP069 =
2018-11-17 03:12 METAR CYHU 170312Z AUTO 18003KT 7SM FEW010 OVC019 M04/M05 A2970 RMK SLP062 =
2018-11-17 03:00 METAR CYHU 170300Z AUTO 18002KT 6SM -SN BKN010 OVC019 M04/M05 A2970 RMK SLP061 =
2018-11-17 02:00 METAR CYHU 170200Z AUTO 00000KT 3SM -SN BKN024 OVC041 M04/M05 A2969 RMK SLP056 =
2018-11-17 01:58 METAR CYHU 170158Z AUTO 00000KT 3SM -SN BKN024 OVC041 M04/M05 A2969 RMK SLP056 =
2018-11-17 01:55 METAR CYHU 170155Z AUTO 00000KT 3SM -SN BKN026 OVC041 M04/M05 A2969 RMK SLP056 =
2018-11-17 01:39 METAR CYHU 170139Z AUTO 00000KT 2SM -SN OVC037 M04/M05 A2969 RMK SLP056 =
2018-11-17 01:08 METAR CYHU 170108Z AUTO 00000KT 1 3/4SM -SN OVC031 M04/M05 A2968 RMK SLP054 =
2018-11-17 01:00 METAR CYHU 170100Z AUTO 00000KT 2SM -SN OVC033 M04/M05 A2968 RMK SLP053 =
2018-11-17 00:56 METAR CYHU 170056Z AUTO 00000KT 2SM -SN OVC033 M04/M05 A2968 RMK SLP053 =
2018-11-17 00:14 METAR CYHU 170014Z AUTO 33002KT 1 1/4SM -SN OVC025 M04/M05 A2968 RMK SLP052 =
2018-11-17 00:00 METAR CYHU 170000Z AUTO 36003KT 1SM R24R/P6000FT/D -SN OVC021 M04/M05 A2967 RMK
                 PCPN 0.5MM PAST HR SLP051 =
2018-11-16 23:00 METAR CYHU 162300Z AUTO 35003KT 1 1/4SM -SN OVC023 M04/M05 A2966 RMK SLP048 =
2018-11-16 22:57 METAR CYHU 162257Z AUTO 35003KT 1 1/2SM -SN OVC023 M04/M05 A2966 RMK SLP048 =
2018-11-16 22:33 METAR CYHU 162233Z AUTO 34003KT 1 3/4SM -SN OVC035 M04/M05 A2966 RMK SLP047 =
2018-11-16 22:30 METAR CYHU 162230Z AUTO 35004KT 2SM -SN OVC039 M04/M05 A2966 RMK SLP047 =
2018-11-16 22:00 METAR CYHU 162200Z AUTO 35005KT 4SM -SN OVC039 M04/M05 A2965 RMK SLP045 =
2018-11-16 21:44 METAR CYHU 162144Z AUTO 35005KT 3SM -SN OVC031 M04/M05 A2965 RMK SLP045 =
2018-11-16 21:35 METAR CYHU 162135Z AUTO 35005KT 2 1/4SM -SN OVC025 M04/M05 A2966 RMK SLP046 =
2018-11-16 21:16 METAR CYHU 162116Z AUTO 34006KT 2SM -SN OVC019 M04/M05 A2966 RMK VIS VRB 1 1/2-2
                 1/2 SLP047 =
2018-11-16 21:00 METAR CYHU 162100Z AUTO 34005KT 3/4SM R24R/P6000FT/N -SN VV018 M04/M05 A2966 RMK
                 SLP046 =
2018-11-16 20:49 METAR CYHU 162049Z AUTO 35004KT 3/4SM R24R/P6000FT/D -SN OVC023 M04/M05 A2966
                 RMK SLP046 =
2018-11-16 20:26 METAR CYHU 162026Z AUTO 01004KT 1 3/4SM -SN FEW007 OVC035 M04/M05 A2965 RMK
                 SLP045 =
2018-11-16 20:23 METAR CYHU 162023Z AUTO 01004KT 2SM -SN FEW007 OVC033 M04/M05 A2965 RMK SLP045 =
2018-11-16 20:12 METAR CYHU 162012Z AUTO 01005KT 1 1/4SM -SN FEW005 OVC025 M04/M04 A2965 RMK
                 SLP044 =
2018-11-16 20:00 METAR CYHU 162000Z AUTO 02005KT 3/4SM R24R/6000FT/U -SN VV016 M03/M04 A2965 RMK
                 SLP044 =
2018-11-16 19:30 METAR CYHU 161930Z AUTO 04005KT 3/4SM R24R/P6000FT/D -SN SCT008 OVC012 M03/M04
                 A2966 RMK ICG PAST HR SLP047 =
2018-11-16 19:20 METAR CYHU 161920Z AUTO 04005KT 1 3/4SM -SN BKN008 OVC014 M03/M04 A2966 RMK ICG
                 PAST HR SLP046 =
2018-11-16 19:13 METAR CYHU 161913Z AUTO 04006KT 2 1/4SM -SN OVC008 M03/M04 A2965 RMK ICG PAST HR
                 SLP045 =
2018-11-16 19:11 METAR CYHU 161911Z AUTO 05006KT 3SM -SN OVC008 M03/M04 A2965 RMK ICG PAST HR
                 SLP045 =
2018-11-16 19:00 METAR CYHU 161900Z AUTO 04007KT 3SM -SN OVC008 M03/M04 A2966 RMK ICG INTMT
                 SLP046 =
2018-11-16 18:53 METAR CYHU 161853Z AUTO 03008KT 3SM -SN OVC008 M03/M04 A2966 RMK ICG SLP046 =
2018-11-16 18:42 METAR CYHU 161842Z AUTO 03008KT 2 1/2SM -SN OVC008 M03/M04 A2966 RMK ICG SLP047
                 =
2018-11-16 18:30 METAR CYHU 161830Z AUTO 03008KT 2 1/2SM BR OVC008 M03/M04 A2966 RMK ICG SLP047 =
2018-11-16 18:28 METAR CYHU 161828Z AUTO 03009KT 2 1/2SM BR OVC008 M03/M04 A2966 RMK SLP048 =
2018-11-16 18:08 METAR CYHU 161808Z AUTO 04008KT 4SM BR OVC008 M03/M05 A2967 RMK SLP050 =
2018-11-16 18:00 METAR CYHU 161800Z AUTO 05009KT 4SM -SN OVC008 M03/M05 A2967 RMK SLP051 =
2018-11-16 17:39 METAR CYHU 161739Z AUTO 04008KT 5SM -SN OVC008 M03/M05 A2968 RMK SLP054 =
2018-11-16 17:38 METAR CYHU 161738Z AUTO 04008KT 6SM BR OVC008 M03/M05 A2968 RMK SLP054 =
2018-11-16 17:24 METAR CYHU 161724Z AUTO 04009KT 6SM -SN OVC008 M03/M05 A2969 RMK SLP056 =
2018-11-16 17:20 METAR CYHU 161720Z AUTO 04010KT 3SM -SN BKN008 OVC038 M03/M05 A2969 RMK SLP057 =
2018-11-16 17:14 METAR CYHU 161714Z AUTO 04008KT 2 1/2SM -SN BKN008 BKN036 OVC044 M03/M05 A2970
                 RMK SLP059 =
2018-11-16 17:02 METAR CYHU 161702Z AUTO 04010KT 3SM -SN BKN010 OVC037 M03/M05 A2970 RMK SLP061 =
2018-11-16 17:00 METAR CYHU 161700Z AUTO 04012KT 3SM -SN SCT010 OVC037 M03/M05 A2970 RMK SLP061 =
2018-11-16 16:33 METAR CYHU 161633Z AUTO 04009KT 3SM -SN FEW008 BKN035 OVC045 M03/M05 A2972 RMK
                 SLP067 =
2018-11-16 16:00 METAR CYHU 161600Z AUTO 03010KT 2 1/4SM -SN SCT010 BKN037 OVC045 M04/M05 A2974
                 RMK SLP073 =
2018-11-16 15:57 METAR CYHU 161557Z AUTO 03009KT 2SM -SN SCT010 BKN037 OVC045 M04/M05 A2974 RMK
                 SLP073 =
2018-11-16 15:42 METAR CYHU 161542Z AUTO 04009KT 1 3/4SM -SN SCT008 BKN031 M04/M05 A2975 RMK
                 SLP076 =
2018-11-16 15:40 METAR CYHU 161540Z AUTO 03010KT 2SM -SN SCT008 OVC029 M04/M05 A2975 RMK SLP076 =
2018-11-16 15:36 METAR CYHU 161536Z AUTO 03009KT 3SM -SN SCT010 BKN026 OVC032 M04/M05 A2975 RMK
                 SLP077 =
2018-11-16 15:27 METAR CYHU 161527Z AUTO 03009KT 3SM -SN FEW006 BKN020 OVC034 M04/M05 A2975 RMK
                 SLP077 =
2018-11-16 15:24 METAR CYHU 161524Z AUTO 05007KT 2SM -SN BKN020 OVC034 M04/M05 A2975 RMK SLP078 =
2018-11-16 15:00 METAR CYHU 161500Z AUTO 05007KT 1SM R24R/P6000FT/D -SN VV015 M04/M05 A2976 RMK
                 SLP079 =
2018-11-16 14:00 METAR CYHU 161400Z AUTO 05007KT 1 1/4SM -SN OVC021 M04/M05 A2978 RMK SLP087 =
2018-11-16 13:00 METAR CYHU 161300Z AUTO 05006KT 3/4SM R24R/6000FT/N -SN VV015 M04/M05 A2982 RMK
                 SLP100 =
2018-11-16 12:00 METAR CYHU 161200Z AUTO 05008KT 1SM R24R/P6000FT/D -SN FEW012 OVC019 M05/M06
                 A2985 RMK PCPN 0.5MM PAST HR SLP110 =
2018-11-16 11:50 METAR CYHU 161150Z AUTO 04008KT 1 3/4SM -SN SCT010 BKN015 OVC025 M05/M06 A2985
                 RMK SLP112 =
2018-11-16 11:47 METAR CYHU 161147Z AUTO 04008KT 2 1/2SM -SN BKN010 BKN015 OVC030 M05/M06 A2985
                 RMK SLP112 =
2018-11-16 11:28 METAR CYHU 161128Z AUTO 04005KT 3SM -SN BKN010 BKN019 OVC024 M04/M05 A2987 RMK
                 SLP117 =
2018-11-16 11:24 METAR CYHU 161124Z AUTO 05005KT 2SM -SN SCT010 SCT019 OVC024 M04/M05 A2987 RMK
                 SLP118 =
2018-11-16 11:08 METAR CYHU 161108Z AUTO 07004KT 1 1/2SM -SN FEW010 OVC024 M04/M05 A2988 RMK
                 SLP122 =
2018-11-16 11:01 METAR CYHU 161101Z AUTO 07003KT 1 3/4SM -SN FEW020 OVC030 M04/M05 A2989 RMK
                 SLP125 =
2018-11-16 11:00 METAR CYHU 161100Z AUTO 07003KT 2SM -SN FEW025 OVC030 M04/M05 A2989 RMK SLP125 =
2018-11-16 10:42 METAR CYHU 161042Z AUTO 06005KT 2SM -SN OVC025 M04/M05 A2989 RMK SLP126 =
2018-11-16 10:00 METAR CYHU 161000Z AUTO 09008KT 3/4SM R24R/P6000FT/U -SN VV011 M04/M05 A2992 RMK
                 SLP136 =
2018-11-16 09:00 METAR CYHU 160900Z AUTO 10007KT 3/4SM R24R/P6000FT/U -SN VV012 M04/M05 A2995 RMK
                 SLP145 =
2018-11-16 08:00 METAR CYHU 160800Z AUTO 09006KT 1 1/4SM -SN OVC014 M04/M06 A2999 RMK SLP159 =
2018-11-16 07:34 METAR CYHU 160734Z AUTO 07006KT 1 3/4SM -SN OVC022 M04/M08 A3001 RMK PRESFR
                 SLP165 =
2018-11-16 07:31 METAR CYHU 160731Z AUTO 06004KT 2 1/2SM -SN OVC024 M04/M08 A3002 RMK SLP167 =
2018-11-16 07:28 METAR CYHU 160728Z AUTO 07005KT 4SM -SN OVC028 M04/M08 A3002 RMK SLP168 =
2018-11-16 07:20 METAR CYHU 160720Z AUTO 06005KT 9SM -SN OVC034 M04/M08 A3002 RMK SLP170 =

Support USWX by starting your Amazon purchase here.